createdAt,value
2018-06-14T00:00:32.091Z,1006.60
2018-06-14T00:01:32.081Z,1006.57
2018-06-14T00:02:32.083Z,1006.58
2018-06-14T00:03:32.080Z,1006.59
2018-06-14T00:04:32.078Z,1006.59
2018-06-14T00:05:32.077Z,1006.59
2018-06-14T00:06:32.074Z,1006.54
2018-06-14T00:07:32.076Z,1006.54
2018-06-14T00:08:32.071Z,1006.53
2018-06-14T00:09:32.069Z,1006.49
2018-06-14T00:10:32.067Z,1006.51
2018-06-14T00:11:32.066Z,1006.51
2018-06-14T00:12:32.064Z,1006.51
2018-06-14T00:13:32.063Z,1006.53
2018-06-14T00:14:32.061Z,1006.44
2018-06-14T00:15:32.059Z,1006.51
2018-06-14T00:16:32.058Z,1006.49
2018-06-14T00:17:32.102Z,1006.46
2018-06-14T00:18:32.055Z,1006.44
2018-06-14T00:19:32.052Z,1006.42
2018-06-14T00:20:32.053Z,1006.42
2018-06-14T00:21:32.049Z,1006.40
2018-06-14T00:22:32.046Z,1006.43
2018-06-14T00:23:32.045Z,1006.43
2018-06-14T00:24:32.043Z,1006.43
2018-06-14T00:25:32.040Z,1006.45
2018-06-14T00:26:32.039Z,1006.43
2018-06-14T00:27:32.040Z,1006.44
2018-06-14T00:28:32.035Z,1006.43
2018-06-14T00:29:32.032Z,1006.41
2018-06-14T00:30:32.031Z,1006.38
2018-06-14T00:31:32.029Z,1006.43
2018-06-14T00:32:32.028Z,1006.39
2018-06-14T00:33:32.025Z,1006.43
2018-06-14T00:34:32.023Z,1006.42
2018-06-14T00:35:32.025Z,1006.41
2018-06-14T00:36:32.019Z,1006.44
2018-06-14T00:37:32.018Z,1006.40
2018-06-14T00:38:32.014Z,1006.42
2018-06-14T00:39:32.014Z,1006.45
2018-06-14T00:40:32.013Z,1006.45
2018-06-14T00:41:32.010Z,1006.43
2018-06-14T00:42:32.007Z,1006.45
2018-06-14T00:43:32.006Z,1006.49
2018-06-14T00:44:32.005Z,1006.49
2018-06-14T00:45:32.001Z,1006.49
2018-06-14T00:46:31.999Z,1006.46
2018-06-14T00:47:31.997Z,1006.46
2018-06-14T00:48:31.996Z,1006.48
2018-06-14T00:49:31.992Z,1006.49
2018-06-14T00:50:31.991Z,1006.48
2018-06-14T00:51:31.990Z,1006.49
2018-06-14T00:52:31.987Z,1006.51
2018-06-14T00:53:31.986Z,1006.44
2018-06-14T00:54:31.983Z,1006.47
2018-06-14T00:55:31.982Z,1006.45
2018-06-14T00:56:31.981Z,1006.44
2018-06-14T00:57:31.976Z,1006.43
2018-06-14T00:58:31.976Z,1006.41
2018-06-14T00:59:31.974Z,1006.42
2018-06-14T01:00:31.971Z,1006.40
2018-06-14T01:01:31.968Z,1006.42
2018-06-14T01:02:31.967Z,1006.43
2018-06-14T01:03:31.965Z,1006.45
2018-06-14T01:04:31.963Z,1006.46
2018-06-14T01:05:31.959Z,1006.43
2018-06-14T01:06:31.958Z,1006.43
2018-06-14T01:07:31.957Z,1006.44
2018-06-14T01:08:31.957Z,1006.45
2018-06-14T01:09:31.951Z,1006.41
2018-06-14T01:10:31.950Z,1006.43
2018-06-14T01:11:31.948Z,1006.41
2018-06-14T01:12:31.946Z,1006.41
2018-06-14T01:13:31.943Z,1006.37
2018-06-14T01:14:31.942Z,1006.38
2018-06-14T01:15:31.940Z,1006.37
2018-06-14T01:16:31.938Z,1006.37
2018-06-14T01:17:31.935Z,1006.41
2018-06-14T01:18:31.933Z,1006.40
2018-06-14T01:19:31.930Z,1006.41
2018-06-14T01:20:31.929Z,1006.44
2018-06-14T01:21:31.926Z,1006.42
2018-06-14T01:22:31.968Z,1006.41
2018-06-14T01:23:31.921Z,1006.39
2018-06-14T01:24:31.920Z,1006.37
2018-06-14T01:25:31.917Z,1006.38
2018-06-14T01:26:31.915Z,1006.38
2018-06-14T01:27:31.914Z,1006.35
2018-06-14T01:28:31.912Z,1006.33
2018-06-14T01:29:31.910Z,1006.34
2018-06-14T01:30:31.906Z,1006.34
2018-06-14T01:31:31.903Z,1006.32
2018-06-14T01:32:31.903Z,1006.28
2018-06-14T01:33:31.900Z,1006.33
2018-06-14T01:34:31.896Z,1006.33
2018-06-14T01:35:31.895Z,1006.34
2018-06-14T01:36:31.893Z,1006.35
2018-06-14T01:37:31.890Z,1006.34
2018-06-14T01:38:31.888Z,1006.36
2018-06-14T01:39:31.886Z,1006.37
2018-06-14T01:40:31.884Z,1006.36
2018-06-14T01:41:31.882Z,1006.37
2018-06-14T01:42:31.881Z,1006.34
2018-06-14T01:43:31.877Z,1006.34
2018-06-14T01:44:31.875Z,1006.38
2018-06-14T01:45:31.871Z,1006.34
2018-06-14T01:46:31.869Z,1006.36
2018-06-14T01:47:31.867Z,1006.33
2018-06-14T01:48:31.865Z,1006.32
2018-06-14T01:49:31.862Z,1006.36
2018-06-14T01:50:31.860Z,1006.33
2018-06-14T01:51:31.858Z,1006.33
2018-06-14T01:52:31.856Z,1006.31
2018-06-14T01:53:31.853Z,1006.31
2018-06-14T01:54:31.849Z,1006.31
2018-06-14T01:55:31.849Z,1006.30
2018-06-14T01:56:31.847Z,1006.28
2018-06-14T01:57:31.842Z,1006.26
2018-06-14T01:58:31.841Z,1006.22
2018-06-14T01:59:31.839Z,1006.22
2018-06-14T02:00:31.841Z,1006.22
2018-06-14T02:01:31.834Z,1006.21
2018-06-14T02:02:31.831Z,1006.17
2018-06-14T02:03:31.829Z,1006.20
2018-06-14T02:04:31.827Z,1006.21
2018-06-14T02:05:31.824Z,1006.23
2018-06-14T02:06:31.822Z,1006.26
2018-06-14T02:07:31.819Z,1006.24
2018-06-14T02:08:31.817Z,1006.21
2018-06-14T02:09:31.813Z,1006.24
2018-06-14T02:10:31.811Z,1006.21
2018-06-14T02:11:31.810Z,1006.19
2018-06-14T02:12:31.808Z,1006.17
2018-06-14T02:13:31.804Z,1006.13
2018-06-14T02:14:31.802Z,1006.14
2018-06-14T02:15:31.800Z,1006.13
2018-06-14T02:16:31.797Z,1006.13
2018-06-14T02:17:31.793Z,1006.09
2018-06-14T02:18:31.792Z,1006.09
2018-06-14T02:19:31.789Z,1006.09
2018-06-14T02:20:31.787Z,1006.13
2018-06-14T02:21:31.788Z,1006.11
2018-06-14T02:22:31.781Z,1006.09
2018-06-14T02:23:31.779Z,1006.10
2018-06-14T02:24:31.776Z,1006.07
2018-06-14T02:25:31.774Z,1006.07
2018-06-14T02:26:31.771Z,1006.02
2018-06-14T02:27:31.770Z,1006.04
2018-06-14T02:28:31.767Z,1006.07
2018-06-14T02:29:31.764Z,1006.09
2018-06-14T02:30:31.761Z,1006.05
2018-06-14T02:31:31.758Z,1006.04
2018-06-14T02:32:31.757Z,1006.07
2018-06-14T02:33:31.753Z,1006.03
2018-06-14T02:34:31.750Z,1006.07
2018-06-14T02:35:31.748Z,1006.08
2018-06-14T02:36:31.746Z,1006.09
2018-06-14T02:37:31.742Z,1006.06
2018-06-14T02:38:31.745Z,1006.05
2018-06-14T02:39:31.738Z,1006.06
2018-06-14T02:40:31.737Z,1006.08
2018-06-14T02:41:31.732Z,1006.07
2018-06-14T02:42:31.730Z,1006.05
2018-06-14T02:43:31.727Z,1006.06
2018-06-14T02:44:31.724Z,1006.12
2018-06-14T02:45:31.721Z,1006.10
2018-06-14T02:46:31.719Z,1006.11
2018-06-14T02:47:31.717Z,1006.06
2018-06-14T02:48:31.714Z,1006.01
2018-06-14T02:49:31.715Z,1006.03
2018-06-14T02:50:31.709Z,1006.00
2018-06-14T02:51:31.707Z,1005.97
2018-06-14T02:52:31.704Z,1005.98
2018-06-14T02:53:31.704Z,1005.97
2018-06-14T02:54:31.698Z,1005.94
2018-06-14T02:55:31.698Z,1005.98
2018-06-14T02:56:31.693Z,1005.96
2018-06-14T02:57:31.690Z,1005.93
2018-06-14T02:58:31.688Z,1005.97
2018-06-14T02:59:31.685Z,1005.94
2018-06-14T03:00:31.684Z,1005.94
2018-06-14T03:01:31.679Z,1005.94
2018-06-14T03:02:31.677Z,1005.96
2018-06-14T03:03:31.674Z,1005.96
2018-06-14T03:04:31.672Z,1005.95
2018-06-14T03:05:31.668Z,1005.93
2018-06-14T03:06:31.666Z,1005.91
2018-06-14T03:07:31.663Z,1005.92
2018-06-14T03:08:31.660Z,1005.91
2018-06-14T03:09:31.657Z,1005.93
2018-06-14T03:10:31.655Z,1005.93
2018-06-14T03:11:31.654Z,1005.95
2018-06-14T03:12:31.650Z,1005.94
2018-06-14T03:13:31.646Z,1005.94
2018-06-14T03:14:31.652Z,1005.92
2018-06-14T03:15:31.642Z,1005.91
2018-06-14T03:16:31.639Z,1005.91
2018-06-14T03:17:31.635Z,1005.91
2018-06-14T03:18:31.634Z,1005.87
2018-06-14T03:19:31.631Z,1005.88
2018-06-14T03:20:31.628Z,1005.88
2018-06-14T03:21:31.623Z,1005.88
2018-06-14T03:22:31.622Z,1005.85
2018-06-14T03:23:31.619Z,1005.87
2018-06-14T03:24:31.619Z,1005.87
2018-06-14T03:25:31.613Z,1005.87
2018-06-14T03:26:31.611Z,1005.92
2018-06-14T03:27:31.609Z,1005.92
2018-06-14T03:28:31.605Z,1005.93
2018-06-14T03:29:31.603Z,1005.92
2018-06-14T03:30:31.600Z,1005.94
2018-06-14T03:31:31.598Z,1005.94
2018-06-14T03:32:31.596Z,1005.97
2018-06-14T03:33:31.591Z,1005.95
2018-06-14T03:34:31.589Z,1005.91
2018-06-14T03:35:31.588Z,1005.94
2018-06-14T03:36:31.585Z,1005.93
2018-06-14T03:37:31.581Z,1005.95
2018-06-14T03:38:31.578Z,1005.93
2018-06-14T03:39:31.576Z,1005.89
2018-06-14T03:40:31.574Z,1005.89
2018-06-14T03:41:31.573Z,1005.93
2018-06-14T03:42:31.569Z,1005.88
2018-06-14T03:43:31.565Z,1005.89
2018-06-14T03:44:31.565Z,1005.93
2018-06-14T03:45:31.560Z,1005.92
2018-06-14T03:46:31.616Z,1005.92
2018-06-14T03:47:31.555Z,1005.89
2018-06-14T03:48:31.553Z,1005.90
2018-06-14T03:49:31.550Z,1005.92
2018-06-14T03:50:31.547Z,1005.90
2018-06-14T03:51:31.545Z,1005.89
2018-06-14T03:52:31.542Z,1005.91
2018-06-14T03:53:31.539Z,1005.88
2018-06-14T03:54:31.536Z,1005.90
2018-06-14T03:55:31.532Z,1005.87
2018-06-14T03:56:31.534Z,1005.85
2018-06-14T03:57:31.530Z,1005.89
2018-06-14T03:58:31.527Z,1005.83
2018-06-14T03:59:31.525Z,1005.88
2018-06-14T04:00:31.523Z,1005.89
2018-06-14T04:01:31.519Z,1005.91
2018-06-14T04:02:31.516Z,1005.90
2018-06-14T04:03:31.514Z,1005.90
2018-06-14T04:04:31.512Z,1005.90
2018-06-14T04:05:31.508Z,1005.93
2018-06-14T04:06:31.507Z,1005.95
2018-06-14T04:07:31.504Z,1005.96
2018-06-14T04:08:31.502Z,1005.95
2018-06-14T04:09:31.499Z,1005.93
2018-06-14T04:10:31.499Z,1005.94
2018-06-14T04:11:31.494Z,1005.94
2018-06-14T04:12:31.493Z,1005.98
2018-06-14T04:13:31.489Z,1005.97
2018-06-14T04:14:31.487Z,1005.97
2018-06-14T04:15:31.485Z,1005.98
2018-06-14T04:16:31.483Z,1005.91
2018-06-14T04:17:31.479Z,1005.92
2018-06-14T04:18:31.494Z,1005.92
2018-06-14T04:19:31.474Z,1005.93
2018-06-14T04:20:31.495Z,1005.94
2018-06-14T04:21:31.470Z,1005.92
2018-06-14T04:22:31.468Z,1005.90
2018-06-14T04:23:31.465Z,1005.89
2018-06-14T04:24:31.465Z,1005.92
2018-06-14T04:25:31.464Z,1005.89
2018-06-14T04:26:31.459Z,1005.87
2018-06-14T04:27:31.494Z,1005.88
2018-06-14T04:28:31.456Z,1005.89
2018-06-14T04:29:31.452Z,1005.90
2018-06-14T04:30:31.450Z,1005.87
2018-06-14T04:31:31.448Z,1005.90
2018-06-14T04:32:31.447Z,1005.89
2018-06-14T04:33:31.444Z,1005.87
2018-06-14T04:34:31.444Z,1005.89
2018-06-14T04:35:31.440Z,1005.88
2018-06-14T04:36:31.442Z,1005.88
2018-06-14T04:37:31.435Z,1005.84
2018-06-14T04:38:31.433Z,1005.83
2018-06-14T04:39:31.432Z,1005.83
2018-06-14T04:40:31.432Z,1005.90
2018-06-14T04:41:31.426Z,1005.88
2018-06-14T04:42:31.425Z,1005.90
2018-06-14T04:43:31.424Z,1005.92
2018-06-14T04:44:31.422Z,1005.92
2018-06-14T04:45:31.420Z,1005.90
2018-06-14T04:46:31.419Z,1005.93
2018-06-14T04:47:31.418Z,1005.84
2018-06-14T04:48:31.416Z,1005.82
2018-06-14T04:49:31.413Z,1005.85
2018-06-14T04:50:31.411Z,1005.80
2018-06-14T04:51:31.409Z,1005.75
2018-06-14T04:52:31.407Z,1005.76
2018-06-14T04:53:31.456Z,1005.80
2018-06-14T04:54:31.403Z,1005.74
2018-06-14T04:55:31.401Z,1005.75
2018-06-14T04:56:31.400Z,1005.79
2018-06-14T04:57:31.399Z,1005.72
2018-06-14T04:58:31.396Z,1005.74
2018-06-14T04:59:31.396Z,1005.71
2018-06-14T05:00:31.394Z,1005.77
2018-06-14T05:01:31.390Z,1005.76
2018-06-14T05:02:31.401Z,1005.73
2018-06-14T05:03:31.389Z,1005.77
2018-06-14T05:04:31.386Z,1005.73
2018-06-14T05:05:31.384Z,1005.74
2018-06-14T05:06:31.382Z,1005.75
2018-06-14T05:07:31.382Z,1005.72
2018-06-14T05:08:31.380Z,1005.68
2018-06-14T05:09:31.377Z,1005.70
2018-06-14T05:10:31.376Z,1005.68
2018-06-14T05:11:31.375Z,1005.68
2018-06-14T05:12:31.374Z,1005.67
2018-06-14T05:13:31.371Z,1005.70
2018-06-14T05:14:31.371Z,1005.75
2018-06-14T05:15:31.371Z,1005.73
2018-06-14T05:16:31.369Z,1005.76
2018-06-14T05:17:31.368Z,1005.78
2018-06-14T05:18:31.365Z,1006.00
2018-06-14T05:19:31.364Z,1006.27
2018-06-14T05:20:31.363Z,1006.29
2018-06-14T05:21:31.362Z,1006.35
2018-06-14T05:22:31.361Z,1006.36
2018-06-14T05:23:31.411Z,1006.36
2018-06-14T05:24:31.362Z,1006.39
2018-06-14T05:25:31.362Z,1006.37
2018-06-14T05:26:31.364Z,1006.40
2018-06-14T05:27:31.366Z,1006.36
2018-06-14T05:28:31.368Z,1006.35
2018-06-14T05:29:31.376Z,1006.38
2018-06-14T05:30:31.373Z,1006.41
2018-06-14T05:31:31.377Z,1006.45
2018-06-14T05:32:31.383Z,1006.48
2018-06-14T05:33:31.384Z,1006.47
2018-06-14T05:34:31.393Z,1006.47
2018-06-14T05:35:31.395Z,1006.47
2018-06-14T05:36:31.401Z,1006.40
2018-06-14T05:37:31.405Z,1006.18
2018-06-14T05:38:31.413Z,1006.16
2018-06-14T05:39:31.418Z,1006.05
2018-06-14T05:40:31.427Z,1006.02
2018-06-14T05:41:31.432Z,1005.94
2018-06-14T05:42:31.475Z,1005.94
2018-06-14T05:43:31.446Z,1005.92
2018-06-14T05:44:31.480Z,1005.90
2018-06-14T05:45:31.460Z,1005.87
2018-06-14T05:46:31.467Z,1005.87
2018-06-14T05:47:31.476Z,1005.90
2018-06-14T05:48:31.483Z,1005.87
2018-06-14T05:49:31.489Z,1005.86
2018-06-14T05:50:31.495Z,1005.80
2018-06-14T05:51:31.504Z,1005.78
2018-06-14T05:52:31.511Z,1005.80
2018-06-14T05:53:31.517Z,1005.74
2018-06-14T05:54:31.523Z,1005.72
2018-06-14T05:55:31.529Z,1005.67
2018-06-14T05:56:31.536Z,1005.70
2018-06-14T05:57:31.541Z,1005.69
2018-06-14T05:58:31.546Z,1005.70
2018-06-14T05:59:31.551Z,1005.71
2018-06-14T06:00:31.558Z,1005.68
2018-06-14T06:01:31.564Z,1005.69
2018-06-14T06:02:31.569Z,1005.70
2018-06-14T06:03:31.574Z,1005.68
2018-06-14T06:04:31.582Z,1005.71
2018-06-14T06:05:31.584Z,1005.76
2018-06-14T06:06:31.589Z,1005.74
2018-06-14T06:07:31.593Z,1005.70
2018-06-14T06:08:31.598Z,1005.74
2018-06-14T06:09:31.602Z,1005.71
2018-06-14T06:10:31.608Z,1005.75
2018-06-14T06:11:31.611Z,1005.73
2018-06-14T06:12:31.615Z,1005.69
2018-06-14T06:13:31.618Z,1005.69
2018-06-14T06:14:31.621Z,1005.63
2018-06-14T06:15:31.626Z,1005.65
2018-06-14T06:16:31.630Z,1005.66
2018-06-14T06:17:31.633Z,1005.63
2018-06-14T06:18:31.637Z,1005.63
2018-06-14T06:19:31.641Z,1005.60
2018-06-14T06:20:31.645Z,1005.60
2018-06-14T06:21:31.647Z,1005.62
2018-06-14T06:22:31.650Z,1005.60
2018-06-14T06:23:31.682Z,1005.60
2018-06-14T06:24:31.656Z,1005.58
2018-06-14T06:25:31.659Z,1005.59
2018-06-14T06:26:31.664Z,1005.59
2018-06-14T06:27:31.667Z,1005.57
2018-06-14T06:28:31.670Z,1005.59
2018-06-14T06:29:31.673Z,1005.61
2018-06-14T06:30:31.677Z,1005.59
2018-06-14T06:31:31.678Z,1005.60
2018-06-14T06:32:31.683Z,1005.55
2018-06-14T06:33:31.741Z,1005.59
2018-06-14T06:34:31.689Z,1005.57
2018-06-14T06:35:31.690Z,1005.60
2018-06-14T06:36:31.696Z,1005.55
2018-06-14T06:37:31.696Z,1005.61
2018-06-14T06:38:31.697Z,1005.52
2018-06-14T06:39:31.702Z,1005.56
2018-06-14T06:40:31.703Z,1005.57
2018-06-14T06:41:31.706Z,1005.54
2018-06-14T06:42:31.709Z,1005.54
2018-06-14T06:43:31.712Z,1005.54
2018-06-14T06:44:31.716Z,1005.55
2018-06-14T06:45:31.719Z,1005.53
2018-06-14T06:46:31.720Z,1005.52
2018-06-14T06:47:31.723Z,1005.58
2018-06-14T06:48:31.726Z,1005.49
2018-06-14T06:49:31.728Z,1005.56
2018-06-14T06:50:31.731Z,1005.58
2018-06-14T06:51:31.735Z,1005.56
2018-06-14T06:52:31.737Z,1005.56
2018-06-14T06:53:31.742Z,1005.57
2018-06-14T06:54:31.743Z,1005.55
2018-06-14T06:55:31.745Z,1005.55
2018-06-14T06:56:31.746Z,1005.58
2018-06-14T06:57:31.749Z,1005.55
2018-06-14T06:58:31.752Z,1005.57
2018-06-14T06:59:31.755Z,1005.53
2018-06-14T07:00:31.757Z,1005.57
2018-06-14T07:01:31.760Z,1005.53
2018-06-14T07:02:31.763Z,1005.52
2018-06-14T07:03:31.766Z,1005.53
2018-06-14T07:04:31.770Z,1005.51
2018-06-14T07:05:31.770Z,1005.54
2018-06-14T07:06:31.844Z,1005.50
2018-06-14T07:07:31.777Z,1005.48
2018-06-14T07:08:31.780Z,1005.52
2018-06-14T07:09:31.782Z,1005.54
2018-06-14T07:10:31.787Z,1005.56
2018-06-14T07:11:31.818Z,1005.52
2018-06-14T07:12:31.791Z,1005.54
2018-06-14T07:13:31.794Z,1005.55
2018-06-14T07:14:31.796Z,1005.56
2018-06-14T07:15:31.800Z,1005.52
2018-06-14T07:16:31.802Z,1005.55
2018-06-14T07:17:31.806Z,1005.47
2018-06-14T07:18:31.809Z,1005.54
2018-06-14T07:19:31.812Z,1005.60
2018-06-14T07:20:31.816Z,1005.54
2018-06-14T07:21:31.827Z,1005.60
2018-06-14T07:22:31.823Z,1005.62
2018-06-14T07:23:31.825Z,1005.62
2018-06-14T07:24:31.828Z,1005.61
2018-06-14T07:25:31.832Z,1005.61
2018-06-14T07:26:31.833Z,1005.69
2018-06-14T07:27:31.838Z,1005.93
2018-06-14T07:28:31.842Z,1006.12
2018-06-14T07:29:31.846Z,1006.20
2018-06-14T07:30:31.850Z,1006.19
2018-06-14T07:31:31.855Z,1006.14
2018-06-14T07:32:31.861Z,1006.20
2018-06-14T07:33:31.866Z,1006.15
2018-06-14T07:34:31.874Z,1006.13
2018-06-14T07:35:31.881Z,1006.11
2018-06-14T07:36:31.887Z,1006.12
2018-06-14T07:37:31.894Z,1006.18
2018-06-14T07:38:31.902Z,1006.14
2018-06-14T07:39:31.915Z,1006.22
2018-06-14T07:40:31.920Z,1006.24
2018-06-14T07:41:31.928Z,1006.33
2018-06-14T07:42:31.944Z,1006.37
2018-06-14T07:43:31.950Z,1006.41
2018-06-14T07:44:31.959Z,1006.44
2018-06-14T07:45:31.968Z,1006.41
2018-06-14T07:46:31.979Z,1006.48
2018-06-14T07:47:31.991Z,1006.52
2018-06-14T07:48:32.003Z,1006.54
2018-06-14T07:49:32.015Z,1006.45
2018-06-14T07:50:32.026Z,1006.48
2018-06-14T07:51:32.038Z,1006.52
2018-06-14T07:52:32.050Z,1006.48
2018-06-14T07:53:32.062Z,1006.43
2018-06-14T07:54:32.078Z,1006.46
2018-06-14T07:55:32.088Z,1006.44
2018-06-14T07:56:32.102Z,1006.36
2018-06-14T07:57:32.114Z,1006.36
2018-06-14T07:58:32.128Z,1006.38
2018-06-14T07:59:32.141Z,1006.40
2018-06-14T08:00:32.157Z,1006.39
2018-06-14T08:01:32.169Z,1006.40
2018-06-14T08:02:32.183Z,1006.38
2018-06-14T08:03:32.197Z,1006.38
2018-06-14T08:04:32.212Z,1006.44
2018-06-14T08:05:32.224Z,1006.41
2018-06-14T08:06:32.292Z,1006.43
2018-06-14T08:07:32.256Z,1006.42
2018-06-14T08:08:32.269Z,1006.37
2018-06-14T08:09:32.283Z,1006.44
2018-06-14T08:10:32.298Z,1006.38
2018-06-14T08:11:32.313Z,1006.35
2018-06-14T08:12:32.462Z,1006.34
2018-06-14T08:13:32.343Z,1006.33
2018-06-14T08:14:32.360Z,1006.28
2018-06-14T08:15:32.375Z,1006.28
2018-06-14T08:16:32.387Z,1006.25
2018-06-14T08:17:32.406Z,1006.23
2018-06-14T08:18:32.417Z,1006.26
2018-06-14T08:19:32.434Z,1006.12
2018-06-14T08:20:32.447Z,1006.14
2018-06-14T08:21:32.462Z,1006.13
2018-06-14T08:22:32.477Z,1006.10
2018-06-14T08:23:32.495Z,1006.11
2018-06-14T08:24:32.507Z,1005.42
2018-06-14T08:25:32.521Z,1005.52
2018-06-14T08:26:32.536Z,1005.33
2018-06-14T08:27:32.551Z,1005.38
2018-06-14T08:28:32.567Z,1005.80
2018-06-14T08:29:32.581Z,1005.50
2018-06-14T08:30:32.595Z,1005.77
2018-06-14T08:31:32.610Z,1005.79
2018-06-14T08:32:32.625Z,1005.54
2018-06-14T08:33:32.639Z,1005.67
2018-06-14T08:34:32.654Z,1005.70
2018-06-14T08:35:32.668Z,1005.74
2018-06-14T08:36:32.682Z,1005.50
2018-06-14T08:37:32.696Z,1005.43
2018-06-14T08:38:32.711Z,1005.88
2018-06-14T08:39:32.724Z,1005.40
2018-06-14T08:40:32.739Z,1005.40
2018-06-14T08:41:32.752Z,1005.40
2018-06-14T08:42:32.766Z,1005.35
2018-06-14T08:43:32.780Z,1005.74
2018-06-14T08:44:32.797Z,1005.46
2018-06-14T08:45:32.807Z,1005.57
2018-06-14T08:46:32.820Z,1005.72
2018-06-14T08:47:32.834Z,1005.60
2018-06-14T08:48:32.848Z,1005.14
2018-06-14T08:49:32.860Z,1005.15
2018-06-14T08:50:32.872Z,1005.20
2018-06-14T08:51:32.887Z,1005.56
2018-06-14T08:52:32.899Z,1005.58
2018-06-14T08:53:32.911Z,1005.61
2018-06-14T08:54:32.924Z,1005.55
2018-06-14T08:55:32.938Z,1005.60
2018-06-14T08:56:32.950Z,1005.64
2018-06-14T08:57:32.961Z,1005.59
2018-06-14T08:58:32.976Z,1005.61
2018-06-14T08:59:32.989Z,1005.58
2018-06-14T09:00:33.004Z,1005.58
2018-06-14T09:01:33.016Z,1005.58
2018-06-14T09:02:33.029Z,1005.58
2018-06-14T09:03:33.043Z,1005.67
2018-06-14T09:04:33.059Z,1005.62
2018-06-14T09:05:33.070Z,1005.60
2018-06-14T09:06:33.083Z,1005.66
2018-06-14T09:07:33.097Z,1005.62
2018-06-14T09:08:33.116Z,1005.56
2018-06-14T09:09:33.125Z,1005.66
2018-06-14T09:10:33.139Z,1005.62
2018-06-14T09:11:33.153Z,1005.28
2018-06-14T09:12:33.167Z,1005.34
2018-06-14T09:13:33.182Z,1005.40
2018-06-14T09:14:33.195Z,1005.30
2018-06-14T09:15:33.209Z,1005.50
2018-06-14T09:16:33.226Z,1005.56
2018-06-14T09:17:33.236Z,1005.57
2018-06-14T09:18:33.250Z,1005.43
2018-06-14T09:19:33.265Z,1005.57
2018-06-14T09:20:33.278Z,1005.62
2018-06-14T09:21:33.295Z,1005.60
2018-06-14T09:22:33.306Z,1005.60
2018-06-14T09:23:33.325Z,1005.67
2018-06-14T09:24:33.334Z,1005.40
2018-06-14T09:25:33.347Z,1005.31
2018-06-14T09:26:33.362Z,1005.45
2018-06-14T09:27:33.377Z,1005.05
2018-06-14T09:28:33.390Z,1005.53
2018-06-14T09:29:33.402Z,1005.65
2018-06-14T09:30:33.418Z,1005.64
2018-06-14T09:31:33.430Z,1005.24
2018-06-14T09:32:33.445Z,1005.11
2018-06-14T09:33:33.458Z,1005.18
2018-06-14T09:34:33.472Z,1005.15
2018-06-14T09:35:33.485Z,1005.05
2018-06-14T09:36:33.500Z,1005.05
2018-06-14T09:37:33.512Z,1005.63
2018-06-14T09:38:33.527Z,1005.52
2018-06-14T09:39:33.539Z,1005.57
2018-06-14T09:40:33.556Z,1005.53
2018-06-14T09:41:33.564Z,1005.60
2018-06-14T09:42:33.576Z,1005.62
2018-06-14T09:43:33.594Z,1005.56
2018-06-14T09:44:33.604Z,1005.59
2018-06-14T09:45:33.617Z,1005.47
2018-06-14T09:46:33.630Z,1005.06
2018-06-14T09:47:33.642Z,1005.04
2018-06-14T09:48:33.658Z,1005.49
2018-06-14T09:49:33.667Z,1005.08
2018-06-14T09:50:33.682Z,1005.03
2018-06-14T09:51:33.694Z,1005.04
2018-06-14T09:52:33.707Z,1005.00
2018-06-14T09:53:33.719Z,1005.01
2018-06-14T09:54:33.731Z,1005.00
2018-06-14T09:55:33.743Z,1005.10
2018-06-14T09:56:33.757Z,1005.04
2018-06-14T09:57:33.767Z,1005.08
2018-06-14T09:58:33.780Z,1005.12
2018-06-14T09:59:33.792Z,1005.13
2018-06-14T10:00:33.802Z,1005.13
2018-06-14T10:01:33.812Z,1005.67
2018-06-14T10:02:33.824Z,1005.19
2018-06-14T10:03:33.835Z,1005.20
2018-06-14T10:04:33.847Z,1005.20
2018-06-14T10:05:33.857Z,1005.08
2018-06-14T10:06:33.868Z,1005.10
2018-06-14T10:07:33.881Z,1005.09
2018-06-14T10:08:33.890Z,1005.12
2018-06-14T10:09:33.897Z,1005.05
2018-06-14T10:10:33.908Z,1005.04
2018-06-14T10:11:33.919Z,1005.11
2018-06-14T10:12:33.932Z,1005.09
2018-06-14T10:13:33.938Z,1005.61
2018-06-14T10:14:33.948Z,1005.63
2018-06-14T10:15:33.960Z,1005.69
2018-06-14T10:16:33.969Z,1005.75
2018-06-14T10:17:33.977Z,1005.68
2018-06-14T10:18:33.988Z,1005.67
2018-06-14T10:19:33.998Z,1005.63
2018-06-14T10:20:34.015Z,1005.65
2018-06-14T10:21:34.018Z,1005.68
2018-06-14T10:22:34.028Z,1005.69
2018-06-14T10:23:34.039Z,1005.11
2018-06-14T10:24:34.050Z,1005.31
2018-06-14T10:25:34.060Z,1005.54
2018-06-14T10:26:34.071Z,1005.55
2018-06-14T10:27:34.083Z,1005.62
2018-06-14T10:28:34.093Z,1005.55
2018-06-14T10:29:34.105Z,1005.41
2018-06-14T10:30:34.115Z,1005.50
2018-06-14T10:31:34.126Z,1005.10
2018-06-14T10:32:34.138Z,1005.58
2018-06-14T10:33:34.148Z,1005.58
2018-06-14T10:34:34.164Z,1005.55
2018-06-14T10:35:34.171Z,1005.22
2018-06-14T10:36:34.182Z,1005.49
2018-06-14T10:37:34.194Z,1005.45
2018-06-14T10:38:34.205Z,1005.35
2018-06-14T10:39:34.216Z,1005.13
2018-06-14T10:40:34.228Z,1005.20
2018-06-14T10:41:34.239Z,1005.29
2018-06-14T10:42:34.251Z,1005.07
2018-06-14T10:43:34.316Z,1005.02
2018-06-14T10:44:34.275Z,1005.08
2018-06-14T10:45:34.284Z,1005.21
2018-06-14T10:46:34.296Z,1005.15
2018-06-14T10:47:34.308Z,1005.09
2018-06-14T10:48:34.319Z,1005.02
2018-06-14T10:49:34.328Z,1005.07
2018-06-14T10:50:34.340Z,1005.02
2018-06-14T10:51:34.351Z,1005.08
2018-06-14T10:52:34.363Z,1005.05
2018-06-14T10:53:34.372Z,1004.99
2018-06-14T10:54:34.382Z,1005.06
2018-06-14T10:55:34.394Z,1005.00
2018-06-14T10:56:34.403Z,1004.96
2018-06-14T10:57:34.413Z,1004.93
2018-06-14T10:58:34.424Z,1004.88
2018-06-14T10:59:34.435Z,1004.91
2018-06-14T11:00:34.444Z,1004.91
2018-06-14T11:01:34.459Z,1004.89
2018-06-14T11:02:34.465Z,1004.93
2018-06-14T11:03:34.474Z,1004.88
2018-06-14T11:04:34.486Z,1004.91
2018-06-14T11:05:34.494Z,1004.90
2018-06-14T11:06:34.505Z,1004.99
2018-06-14T11:07:34.515Z,1004.89
2018-06-14T11:08:34.525Z,1004.83
2018-06-14T11:09:34.534Z,1004.90
2018-06-14T11:10:34.546Z,1004.86
2018-06-14T11:11:34.554Z,1004.84
2018-06-14T11:12:34.565Z,1004.84
2018-06-14T11:13:34.573Z,1004.81
2018-06-14T11:14:34.583Z,1004.81
2018-06-14T11:15:34.594Z,1004.75
2018-06-14T11:16:34.603Z,1004.73
2018-06-14T11:17:34.612Z,1004.74
2018-06-14T11:18:34.621Z,1004.78
2018-06-14T11:19:34.632Z,1004.76
2018-06-14T11:20:34.642Z,1004.79
2018-06-14T11:21:34.654Z,1004.67
2018-06-14T11:22:34.660Z,1004.67
2018-06-14T11:23:34.669Z,1004.72
2018-06-14T11:24:34.678Z,1004.73
2018-06-14T11:25:34.688Z,1004.77
2018-06-14T11:26:34.697Z,1004.72
2018-06-14T11:27:34.706Z,1004.79
2018-06-14T11:28:34.720Z,1004.79
2018-06-14T11:29:34.725Z,1004.78
2018-06-14T11:30:34.735Z,1004.75
2018-06-14T11:31:34.744Z,1004.71
2018-06-14T11:32:34.754Z,1004.72
2018-06-14T11:33:34.762Z,1004.71
2018-06-14T11:34:34.772Z,1004.74
2018-06-14T11:35:34.781Z,1004.72
2018-06-14T11:36:34.791Z,1004.74
2018-06-14T11:37:34.800Z,1004.75
2018-06-14T11:38:34.809Z,1004.75
2018-06-14T11:39:34.877Z,1004.73
2018-06-14T11:40:34.827Z,1004.63
2018-06-14T11:41:34.837Z,1004.67
2018-06-14T11:42:34.851Z,1004.68
2018-06-14T11:43:34.856Z,1004.70
2018-06-14T11:44:34.865Z,1004.71
2018-06-14T11:45:34.873Z,1004.65
2018-06-14T11:46:34.883Z,1004.65
2018-06-14T11:47:34.893Z,1004.62
2018-06-14T11:48:34.904Z,1004.55
2018-06-14T11:49:34.910Z,1004.51
2018-06-14T11:50:34.922Z,1004.69
2018-06-14T11:51:34.928Z,1004.55
2018-06-14T11:52:34.937Z,1004.51
2018-06-14T11:53:34.945Z,1004.54
2018-06-14T11:54:34.954Z,1004.56
2018-06-14T11:55:34.965Z,1004.56
2018-06-14T11:56:34.974Z,1004.58
2018-06-14T11:57:34.983Z,1004.54
2018-06-14T11:58:34.993Z,1004.51
2018-06-14T11:59:35.001Z,1004.51
2018-06-14T12:00:35.010Z,1004.45
2018-06-14T12:01:35.020Z,1004.50
2018-06-14T12:02:35.028Z,1004.49
2018-06-14T12:03:35.037Z,1004.44
2018-06-14T12:04:35.046Z,1004.41
2018-06-14T12:05:35.055Z,1004.44